Grandview, Texas
Current Conditions -  °F | °C
As of 9:15 PM on Sunday 21 Dec 2014 (Local Time) from KINJ Reporting Station
Overcast Overcast  
Wind Chill: 52°   Ceiling: 2300
Heat Index: 52°   Visibility: 7mi
Dew Point: 48°   Wind: 13mph
Humidity: 86%   Direction: 150°SSE
Pressure: 29.81"   Gusts: NA
Location:  32.27°N, 97.18°W
Report Text: KINJ 220315Z AUTO 15011KT 7SM SCT012 OVC023 11/09 A2981 RMK AO2 T01130090
Loading
Personal Weather Stations






























Interactive Weather Map New forecast layout! Learn more

10-Day Weather Forecast

Advertisements
Track Severe Weather on mobile